createdAt,value
2023-02-02T00:02:05.303Z,96376.78
2023-02-02T00:04:35.147Z,96379.78
2023-02-02T00:07:05.183Z,96378.19
2023-02-02T00:09:34.785Z,96374.09
2023-02-02T00:12:02.952Z,96364.50
2023-02-02T00:14:30.865Z,96381.63
2023-02-02T00:16:59.119Z,96379.13
2023-02-02T00:19:30.176Z,96389.38
2023-02-02T00:21:59.034Z,96374.78
2023-02-02T00:24:27.018Z,96387.09
2023-02-02T00:26:59.134Z,96378.13
2023-02-02T00:29:29.382Z,96380.28
2023-02-02T00:31:57.899Z,96373.19
2023-02-02T00:34:26.255Z,96374.44
2023-02-02T00:36:54.125Z,96378.47
2023-02-02T00:39:25.373Z,96378.69
2023-02-02T00:41:53.295Z,96372.28
2023-02-02T00:44:40.732Z,96367.72
2023-02-02T00:47:08.663Z,96373.31
2023-02-02T00:49:36.457Z,96381.75
2023-02-02T00:52:04.298Z,96373.66
2023-02-02T00:54:32.192Z,96368.63
2023-02-02T00:57:00.137Z,96363.16
2023-02-02T00:59:29.321Z,96358.59
2023-02-02T01:01:57.242Z,96359.06
2023-02-02T01:04:25.325Z,96364.06
2023-02-02T01:06:53.222Z,96378.44
2023-02-02T01:09:21.401Z,96378.53
2023-02-02T01:11:49.319Z,96389.16
2023-02-02T01:14:17.209Z,96391.09
2023-02-02T01:16:46.522Z,96389.84
2023-02-02T01:19:14.997Z,96384.59
2023-02-02T01:21:43.410Z,96390.50
2023-02-02T01:24:11.317Z,96379.47
2023-02-02T01:26:39.250Z,96372.63
2023-02-02T01:29:07.156Z,96393.59
2023-02-02T01:31:35.721Z,96379.56
2023-02-02T01:34:05.138Z,96387.22
2023-02-02T01:36:33.146Z,96379.34
2023-02-02T01:39:01.041Z,96373.56
2023-02-02T01:41:29.496Z,96381.75
2023-02-02T01:44:02.067Z,96383.47
2023-02-02T01:46:33.035Z,96377.31
2023-02-02T01:49:08.635Z,96374.47
2023-02-02T01:51:43.052Z,96385.94
2023-02-02T01:54:16.821Z,96368.19
2023-02-02T01:56:50.058Z,96371.16
2023-02-02T01:59:19.783Z,96378.00
2023-02-02T02:01:50.151Z,96381.06
2023-02-02T02:04:20.165Z,96367.72
2023-02-02T02:06:51.227Z,96360.53
2023-02-02T02:09:19.215Z,96375.25
2023-02-02T02:11:47.141Z,96377.41
2023-02-02T02:14:34.833Z,96364.06
2023-02-02T02:17:15.452Z,96370.13
2023-02-02T02:20:24.851Z,96393.59
2023-02-02T02:23:37.620Z,96376.28
2023-02-02T02:26:35.787Z,96389.63
2023-02-02T02:29:28.590Z,96381.88
2023-02-02T02:32:23.445Z,96385.50
2023-02-02T02:35:03.225Z,96390.50
2023-02-02T02:37:41.616Z,96391.78
2023-02-02T02:40:19.690Z,96391.78
2023-02-02T02:42:55.456Z,96378.78
2023-02-02T02:45:26.326Z,96375.13
2023-02-02T02:47:56.852Z,96384.94
2023-02-02T02:50:25.318Z,96380.25
2023-02-02T02:53:01.783Z,96388.94
2023-02-02T02:55:40.629Z,96385.03
2023-02-02T02:58:13.895Z,96394.41
2023-02-02T03:00:57.533Z,96392.81
2023-02-02T03:03:41.962Z,96385.25
2023-02-02T03:06:21.304Z,96379.94
2023-02-02T03:08:54.583Z,96378.22
2023-02-02T03:11:23.096Z,96369.88
2023-02-02T03:13:51.537Z,96379.91
2023-02-02T03:16:19.410Z,96367.25
2023-02-02T03:18:48.943Z,96375.94
2023-02-02T03:21:16.817Z,96371.13
2023-02-02T03:23:44.689Z,96375.94
2023-02-02T03:26:12.716Z,96376.94
2023-02-02T03:28:41.076Z,96372.06
2023-02-02T03:31:09.301Z,96363.16
2023-02-02T03:33:39.037Z,96383.44
2023-02-02T03:36:08.965Z,96383.41
2023-02-02T03:38:36.886Z,96388.66
2023-02-02T03:41:06.055Z,96391.84
2023-02-02T03:43:33.929Z,96385.59
2023-02-02T03:46:04.337Z,96384.44
2023-02-02T03:48:33.157Z,96377.06
2023-02-02T03:51:00.974Z,96383.66
2023-02-02T03:53:30.238Z,96379.56
2023-02-02T03:55:58.108Z,96390.25
2023-02-02T03:58:25.968Z,96380.81
2023-02-02T04:00:55.544Z,96387.84
2023-02-02T04:03:23.434Z,96388.66
2023-02-02T04:05:51.935Z,96393.19
2023-02-02T04:08:19.819Z,96399.56
2023-02-02T04:10:49.199Z,96402.78
2023-02-02T04:13:17.076Z,96404.84
2023-02-02T04:15:44.992Z,96405.50
2023-02-02T04:18:13.192Z,96397.31
2023-02-02T04:20:41.155Z,96413.16
2023-02-02T04:23:09.084Z,96418.75
2023-02-02T04:25:36.921Z,96412.81
2023-02-02T04:28:06.363Z,96401.44
2023-02-02T04:30:34.233Z,96412.22
2023-02-02T04:33:02.183Z,96402.22
2023-02-02T04:35:30.031Z,96415.44
2023-02-02T04:37:57.908Z,96413.84
2023-02-02T04:40:26.019Z,96405.41
2023-02-02T04:42:53.939Z,96419.41
2023-02-02T04:45:23.617Z,96422.16
2023-02-02T04:47:51.881Z,96417.94
2023-02-02T04:50:20.004Z,96407.81
2023-02-02T04:52:48.007Z,96416.94
2023-02-02T04:55:16.346Z,96413.41
2023-02-02T04:57:44.628Z,96413.06
2023-02-02T05:00:14.862Z,96420.59
2023-02-02T05:02:44.411Z,96405.31
2023-02-02T05:05:15.068Z,96410.09
2023-02-02T05:07:43.092Z,96417.63
2023-02-02T05:10:12.369Z,96417.16
2023-02-02T05:12:40.251Z,96407.50
2023-02-02T05:15:09.085Z,96410.09
2023-02-02T05:17:36.937Z,96404.63
2023-02-02T05:20:06.796Z,96402.34
2023-02-02T05:22:35.214Z,96410.56
2023-02-02T05:25:03.170Z,96403.75
2023-02-02T05:27:31.024Z,96411.47
2023-02-02T05:29:59.186Z,96407.59
2023-02-02T05:32:28.025Z,96417.06
2023-02-02T05:34:55.869Z,96421.16
2023-02-02T05:37:25.089Z,96418.91
2023-02-02T05:39:53.749Z,96411.94
2023-02-02T05:42:21.848Z,96405.34
2023-02-02T05:44:49.694Z,96419.94
2023-02-02T05:47:17.568Z,96420.72
2023-02-02T05:49:45.476Z,96425.28
2023-02-02T05:52:19.100Z,96403.75
2023-02-02T05:54:48.319Z,96411.72
2023-02-02T05:57:16.198Z,96394.97
2023-02-02T05:59:44.044Z,96404.88
2023-02-02T06:02:11.880Z,96406.38
2023-02-02T06:04:39.843Z,96421.78
2023-02-02T06:07:07.740Z,96415.81
2023-02-02T06:09:38.424Z,96417.44
2023-02-02T06:12:08.747Z,96429.63
2023-02-02T06:14:36.713Z,96420.63
2023-02-02T06:17:04.637Z,96433.03
2023-02-02T06:19:32.436Z,96437.81
2023-02-02T06:22:00.318Z,96435.66
2023-02-02T06:24:28.316Z,96447.31
2023-02-02T06:26:56.246Z,96433.50
2023-02-02T06:29:25.482Z,96434.31
2023-02-02T06:31:53.515Z,96435.09
2023-02-02T06:34:21.651Z,96429.63
2023-02-02T06:36:49.457Z,96436.72
2023-02-02T06:39:17.439Z,96439.78
2023-02-02T06:41:46.681Z,96448.09
2023-02-02T06:44:15.642Z,96440.69
2023-02-02T06:46:44.904Z,96440.44
2023-02-02T06:49:12.743Z,96447.88
2023-02-02T06:51:40.621Z,96448.66
2023-02-02T06:54:08.466Z,96446.72
2023-02-02T06:56:36.338Z,96458.47
2023-02-02T06:59:04.363Z,96467.13
2023-02-02T07:01:32.480Z,96463.97
2023-02-02T07:04:01.734Z,96457.44
2023-02-02T07:06:30.598Z,96469.53
2023-02-02T07:09:02.236Z,96458.59
2023-02-02T07:11:32.998Z,96463.72
2023-02-02T07:14:02.474Z,96466.47
2023-02-02T07:16:30.554Z,96459.38
2023-02-02T07:18:58.330Z,96465.31
2023-02-02T07:21:30.064Z,96474.69
2023-02-02T07:23:58.948Z,96474.09
2023-02-02T07:26:27.714Z,96458.47
2023-02-02T07:28:55.641Z,96476.16
2023-02-02T07:31:26.350Z,96469.41
2023-02-02T07:33:55.420Z,96477.97
2023-02-02T07:36:25.033Z,96477.19
2023-02-02T07:38:55.626Z,96467.38
2023-02-02T07:41:24.659Z,96486.53
2023-02-02T07:43:52.958Z,96487.78
2023-02-02T07:46:22.016Z,96459.72
2023-02-02T07:48:49.973Z,96486.75
2023-02-02T07:51:19.683Z,96493.63
2023-02-02T07:53:49.923Z,96503.19
2023-02-02T07:56:21.444Z,96503.63
2023-02-02T07:58:49.496Z,96497.50
2023-02-02T08:01:19.470Z,96495.19
2023-02-02T08:03:47.442Z,96500.34
2023-02-02T08:06:19.081Z,96502.38
2023-02-02T08:08:47.968Z,96501.56
2023-02-02T08:11:20.432Z,96498.16
2023-02-02T08:13:50.683Z,96499.78
2023-02-02T08:16:19.029Z,96515.97
2023-02-02T08:18:47.813Z,96520.28
2023-02-02T08:21:16.667Z,96515.16
2023-02-02T08:23:45.682Z,96525.44
2023-02-02T08:26:17.258Z,96530.91
2023-02-02T08:28:49.304Z,96526.22
2023-02-02T08:31:19.789Z,96526.22
2023-02-02T08:33:47.634Z,96530.09
2023-02-02T08:36:17.422Z,96527.13
2023-02-02T08:38:45.805Z,96522.34
2023-02-02T08:41:16.417Z,96530.34
2023-02-02T08:43:46.199Z,96532.72
2023-02-02T08:46:16.613Z,96529.41
2023-02-02T08:48:44.878Z,96526.44
2023-02-02T08:51:15.276Z,96514.69
2023-02-02T08:53:43.862Z,96529.66
2023-02-02T08:56:14.376Z,96512.50
2023-02-02T08:58:47.855Z,96525.78
2023-02-02T09:01:18.723Z,96531.03
2023-02-02T09:03:46.994Z,96527.91
2023-02-02T09:06:18.059Z,96516.63
2023-02-02T09:08:47.279Z,96522.91
2023-02-02T09:11:17.268Z,96524.16
2023-02-02T09:13:48.743Z,96523.91
2023-02-02T09:16:19.152Z,96527.03
2023-02-02T09:18:47.328Z,96532.59
2023-02-02T09:21:18.197Z,96534.22
2023-02-02T09:23:47.728Z,96541.97
2023-02-02T09:26:18.747Z,96539.69
2023-02-02T09:28:50.310Z,96544.38
2023-02-02T09:31:18.633Z,96542.88
2023-02-02T09:33:47.045Z,96565.91
2023-02-02T09:36:17.523Z,96553.81
2023-02-02T09:38:46.010Z,96555.44
2023-02-02T09:41:33.320Z,96555.44
2023-02-02T09:44:16.244Z,96553.59
2023-02-02T09:46:58.870Z,96562.28
2023-02-02T09:49:36.809Z,96577.69
2023-02-02T09:52:16.858Z,96570.69
2023-02-02T09:54:47.974Z,96573.44
2023-02-02T09:57:22.860Z,96583.84
2023-02-02T09:59:55.092Z,96587.25
2023-02-02T10:02:28.490Z,96581.91
2023-02-02T10:05:03.478Z,96587.38
2023-02-02T10:07:38.460Z,96585.97
2023-02-02T10:10:18.110Z,96585.06
2023-02-02T10:12:55.402Z,96578.47
2023-02-02T10:15:36.956Z,96587.47
2023-02-02T10:18:16.387Z,96579.38
2023-02-02T10:20:48.905Z,96587.91
2023-02-02T10:23:28.116Z,96580.06
2023-02-02T10:25:59.160Z,96579.97
2023-02-02T10:28:44.294Z,96570.81
2023-02-02T10:31:22.934Z,96587.63
2023-02-02T10:34:05.054Z,96582.25
2023-02-02T10:36:47.000Z,96583.28
2023-02-02T10:39:30.678Z,96590.47
2023-02-02T10:42:13.001Z,96587.38
2023-02-02T10:44:50.504Z,96595.25
2023-02-02T10:47:27.295Z,96605.31
2023-02-02T10:50:09.253Z,96607.72
2023-02-02T10:52:38.852Z,96612.28
2023-02-02T10:55:19.850Z,96603.69
2023-02-02T10:57:58.721Z,96618.44
2023-02-02T11:00:35.201Z,96597.88
2023-02-02T11:03:07.135Z,96600.41
2023-02-02T11:05:52.088Z,96599.72
2023-02-02T11:08:22.496Z,96596.41
2023-02-02T11:10:55.795Z,96604.97
2023-02-02T11:13:31.665Z,96607.38
2023-02-02T11:16:22.580Z,96593.66
2023-02-02T11:18:51.910Z,96592.19
2023-02-02T11:21:22.960Z,96586.59
2023-02-02T11:23:56.344Z,96590.56
2023-02-02T11:26:26.038Z,96589.09
2023-02-02T11:28:59.216Z,96601.75
2023-02-02T11:31:32.578Z,96598.56
2023-02-02T11:34:21.548Z,96607.09
2023-02-02T11:37:04.913Z,96617.31
2023-02-02T11:39:32.780Z,96612.25
2023-02-02T11:42:07.522Z,96605.31
2023-02-02T11:44:40.030Z,96606.06
2023-02-02T11:47:08.528Z,96609.19
2023-02-02T11:49:44.567Z,96604.94
2023-02-02T11:52:20.548Z,96598.78
2023-02-02T11:54:51.601Z,96605.16
2023-02-02T11:57:23.225Z,96600.34
2023-02-02T12:00:06.854Z,96601.06
2023-02-02T12:02:35.478Z,96611.78
2023-02-02T12:05:36.101Z,96605.84
2023-02-02T12:08:05.017Z,96601.63
2023-02-02T12:10:42.920Z,96608.25
2023-02-02T12:13:22.263Z,96612.25
2023-02-02T12:16:02.119Z,96610.19
2023-02-02T12:18:46.798Z,96598.78
2023-02-02T12:21:31.329Z,96599.22
2023-02-02T12:24:19.038Z,96603.91
2023-02-02T12:26:58.474Z,96593.31
2023-02-02T12:29:53.031Z,96604.94
2023-02-02T12:32:47.494Z,96608.03
2023-02-02T12:35:32.242Z,96616.59
2023-02-02T12:38:21.860Z,96599.69
2023-02-02T12:41:18.701Z,96598.88
2023-02-02T12:43:50.543Z,96599.34
2023-02-02T12:46:41.475Z,96586.69
2023-02-02T12:49:36.804Z,96592.16
2023-02-02T12:52:17.972Z,96596.41
2023-02-02T12:55:06.063Z,96598.34
2023-02-02T12:57:51.473Z,96604.16
2023-02-02T13:00:39.532Z,96608.50
2023-02-02T13:03:23.743Z,96618.66
2023-02-02T13:06:05.318Z,96622.44
2023-02-02T13:08:43.903Z,96616.25
2023-02-02T13:11:30.743Z,96634.88
2023-02-02T13:14:06.814Z,96619.13
2023-02-02T13:16:41.081Z,96626.22
2023-02-02T13:19:16.111Z,96638.78
2023-02-02T13:21:46.418Z,96620.72
2023-02-02T13:24:25.569Z,96626.22
2023-02-02T13:26:58.559Z,96633.41
2023-02-02T13:29:47.637Z,96634.22
2023-02-02T13:32:24.361Z,96638.41
2023-02-02T13:34:59.285Z,96649.06
2023-02-02T13:37:37.257Z,96645.03
2023-02-02T13:40:17.892Z,96637.19
2023-02-02T13:42:55.608Z,96645.41
2023-02-02T13:45:40.391Z,96637.19
2023-02-02T13:48:23.313Z,96639.44
2023-02-02T13:51:16.699Z,96650.78
2023-02-02T13:54:08.021Z,96644.13
2023-02-02T13:56:43.637Z,96641.28
2023-02-02T13:59:46.834Z,96655.66
2023-02-02T14:02:25.369Z,96651.09
2023-02-02T14:04:56.992Z,96648.25
2023-02-02T14:07:34.102Z,96682.38
2023-02-02T14:10:02.370Z,96678.84
2023-02-02T14:12:34.079Z,96664.34
2023-02-02T14:15:04.068Z,96676.78
2023-02-02T14:17:54.939Z,96675.28
2023-02-02T14:20:47.919Z,96683.06
2023-02-02T14:23:53.235Z,96685.34
2023-02-02T14:26:42.356Z,96695.97
2023-02-02T14:29:36.631Z,96681.47
2023-02-02T14:32:34.707Z,96677.59
2023-02-02T14:35:40.994Z,96687.41
2023-02-02T14:38:19.090Z,96672.69
2023-02-02T14:41:00.305Z,96687.88
2023-02-02T14:43:53.082Z,96676.56
2023-02-02T14:46:36.022Z,96682.06
2023-02-02T14:49:35.446Z,96687.88
2023-02-02T14:52:05.441Z,96692.22
2023-02-02T14:54:38.753Z,96686.25
2023-02-02T14:57:26.550Z,96680.13
2023-02-02T14:59:58.741Z,96702.03
2023-02-02T15:02:36.125Z,96691.19
2023-02-02T15:05:43.960Z,96682.97
2023-02-02T15:08:23.715Z,96703.88
2023-02-02T15:11:30.041Z,96709.34
2023-02-02T15:14:11.316Z,96702.94
2023-02-02T15:16:42.289Z,96699.50
2023-02-02T15:19:28.422Z,96718.00
2023-02-02T15:22:18.849Z,96710.59
2023-02-02T15:24:48.478Z,96726.00
2023-02-02T15:27:20.458Z,96733.47
2023-02-02T15:29:54.766Z,96729.22
2023-02-02T15:32:28.391Z,96733.56
2023-02-02T15:35:02.252Z,96734.00
2023-02-02T15:37:40.241Z,96735.63
2023-02-02T15:40:15.823Z,96759.16
2023-02-02T15:42:55.875Z,96746.16
2023-02-02T15:45:43.537Z,96731.28
2023-02-02T15:48:21.590Z,96751.63
2023-02-02T15:50:54.651Z,96755.94
2023-02-02T15:53:27.207Z,96752.88
2023-02-02T15:55:57.333Z,96757.44
2023-02-02T15:58:29.307Z,96764.97
2023-02-02T16:01:01.517Z,96773.88
2023-02-02T16:03:38.198Z,96773.31
2023-02-02T16:06:08.756Z,96784.63
2023-02-02T16:08:41.045Z,96786.69
2023-02-02T16:11:13.376Z,96786.47
2023-02-02T16:13:43.824Z,96804.63
2023-02-02T16:16:24.686Z,96793.66
2023-02-02T16:19:15.830Z,96795.94
2023-02-02T16:21:50.268Z,96801.63
2023-02-02T16:24:25.056Z,96793.06
2023-02-02T16:26:55.623Z,96813.41
2023-02-02T16:29:25.344Z,96803.56
2023-02-02T16:31:53.373Z,96812.00
2023-02-02T16:34:46.722Z,96819.22
2023-02-02T16:37:18.199Z,96829.72
2023-02-02T16:39:47.491Z,96838.59
2023-02-02T16:42:26.003Z,96837.03
2023-02-02T16:44:54.512Z,96838.59
2023-02-02T16:47:38.843Z,96843.75
2023-02-02T16:50:27.186Z,96839.78
2023-02-02T16:52:59.110Z,96855.53
2023-02-02T16:55:43.609Z,96853.91
2023-02-02T16:58:22.603Z,96859.06
2023-02-02T17:01:13.680Z,96858.53
2023-02-02T17:03:51.587Z,96866.50
2023-02-02T17:06:35.802Z,96878.16
2023-02-02T17:09:28.557Z,96878.59
2023-02-02T17:12:00.905Z,96876.06
2023-02-02T17:14:33.603Z,96888.53
2023-02-02T17:17:05.315Z,96883.63
2023-02-02T17:19:33.622Z,96888.44
2023-02-02T17:22:05.571Z,96898.13
2023-02-02T17:24:33.979Z,96890.34
2023-02-02T17:27:04.609Z,96903.75
2023-02-02T17:29:34.728Z,96915.22
2023-02-02T17:32:02.579Z,96920.84
2023-02-02T17:34:30.709Z,96928.81
2023-02-02T17:36:58.583Z,96927.69
2023-02-02T17:39:26.462Z,96937.03
2023-02-02T17:41:54.778Z,96937.97
2023-02-02T17:44:24.140Z,96936.91
2023-02-02T17:46:51.975Z,96954.63
2023-02-02T17:49:20.396Z,96945.06
2023-02-02T17:51:48.307Z,96948.13
2023-02-02T17:54:17.770Z,96950.75
2023-02-02T17:56:46.833Z,96951.66
2023-02-02T17:59:14.698Z,96946.38
2023-02-02T18:01:44.009Z,96956.69
2023-02-02T18:04:15.576Z,96948.47
2023-02-02T18:06:43.469Z,96952.69
2023-02-02T18:09:11.533Z,96949.00
2023-02-02T18:11:42.093Z,96953.22
2023-02-02T18:14:10.615Z,96955.28
2023-02-02T18:16:38.533Z,96952.06
2023-02-02T18:19:07.849Z,96965.53
2023-02-02T18:21:35.801Z,96955.50
2023-02-02T18:24:03.776Z,96960.16
2023-02-02T18:26:32.664Z,96969.69
2023-02-02T18:29:00.603Z,96972.75
2023-02-02T18:31:28.469Z,96973.53
2023-02-02T18:33:56.898Z,96964.84
2023-02-02T18:36:26.152Z,96976.28
2023-02-02T18:38:54.617Z,96960.03
2023-02-02T18:41:22.597Z,96962.78
2023-02-02T18:43:52.814Z,96957.75
2023-02-02T18:46:21.131Z,96951.63
2023-02-02T18:48:49.090Z,96956.16
2023-02-02T18:51:19.414Z,96978.53
2023-02-02T18:53:50.065Z,96973.53
2023-02-02T18:56:18.281Z,96984.31
2023-02-02T18:58:46.308Z,96987.06
2023-02-02T19:01:17.613Z,96982.69
2023-02-02T19:03:50.366Z,96983.94
2023-02-02T19:06:37.624Z,96982.03
2023-02-02T19:09:08.523Z,96984.56
2023-02-02T19:11:39.644Z,96976.34
2023-02-02T19:14:14.912Z,96984.13
2023-02-02T19:16:44.406Z,96987.44
2023-02-02T19:19:24.124Z,96981.38
2023-02-02T19:21:55.767Z,96989.84
2023-02-02T19:24:27.011Z,96997.59
2023-02-02T19:26:55.119Z,96993.91
2023-02-02T19:29:25.080Z,96996.00
2023-02-02T19:31:54.539Z,96993.59
2023-02-02T19:34:24.119Z,97003.75
2023-02-02T19:36:52.346Z,97008.41
2023-02-02T19:39:22.571Z,97003.41
2023-02-02T19:41:57.810Z,97014.03
2023-02-02T19:44:30.751Z,97008.09
2023-02-02T19:46:59.959Z,97014.72
2023-02-02T19:49:32.874Z,97008.22
2023-02-02T19:52:03.828Z,97001.34
2023-02-02T19:54:35.894Z,97008.78
2023-02-02T19:57:24.170Z,97011.66
2023-02-02T19:59:56.535Z,97011.28
2023-02-02T20:02:56.086Z,97015.81
2023-02-02T20:05:26.563Z,97002.94
2023-02-02T20:08:01.400Z,97020.00
2023-02-02T20:10:36.386Z,97016.56
2023-02-02T20:13:16.097Z,97020.19
2023-02-02T20:15:44.645Z,97011.53
2023-02-02T20:18:18.354Z,97021.47
2023-02-02T20:20:51.533Z,97008.78
2023-02-02T20:23:32.967Z,97009.34
2023-02-02T20:26:08.447Z,97015.84
2023-02-02T20:28:44.828Z,97004.44
2023-02-02T20:31:16.105Z,97019.75
2023-02-02T20:33:46.896Z,97017.25
2023-02-02T20:36:33.141Z,97004.22
2023-02-02T20:39:23.306Z,97026.16
2023-02-02T20:41:52.067Z,97022.47
2023-02-02T20:44:21.445Z,97023.41
2023-02-02T20:46:49.396Z,97031.84
2023-02-02T20:49:17.607Z,97015.38
2023-02-02T20:51:45.628Z,97016.84
2023-02-02T20:54:13.699Z,97019.88
2023-02-02T20:56:41.878Z,97009.09
2023-02-02T20:59:09.937Z,97027.97
2023-02-02T21:01:39.420Z,97036.31
2023-02-02T21:04:07.456Z,97044.06
2023-02-02T21:06:35.381Z,97038.13
2023-02-02T21:09:04.272Z,97051.47
2023-02-02T21:11:32.268Z,97049.88
2023-02-02T21:14:00.513Z,97051.47
2023-02-02T21:16:29.004Z,97063.25
2023-02-02T21:18:58.510Z,97064.72
2023-02-02T21:21:26.535Z,97057.88
2023-02-02T21:23:56.262Z,97065.38
2023-02-02T21:26:30.302Z,97069.72
2023-02-02T21:28:59.357Z,97068.59
2023-02-02T21:31:28.086Z,97063.44
2023-02-02T21:33:56.181Z,97063.31
2023-02-02T21:36:33.641Z,97071.66
2023-02-02T21:39:12.275Z,97074.06
2023-02-02T21:41:40.444Z,97072.47
2023-02-02T21:44:14.710Z,97078.63
2023-02-02T21:46:43.430Z,97073.13
2023-02-02T21:49:21.755Z,97070.72
2023-02-02T21:51:52.107Z,97072.00
2023-02-02T21:54:23.884Z,97080.22
2023-02-02T21:56:52.839Z,97085.56
2023-02-02T21:59:22.958Z,97080.22
2023-02-02T22:01:52.857Z,97079.63
2023-02-02T22:04:23.746Z,97085.41
2023-02-02T22:06:55.238Z,97079.13
2023-02-02T22:09:25.452Z,97069.84
2023-02-02T22:11:59.138Z,97080.59
2023-02-02T22:14:36.943Z,97074.84
2023-02-02T22:17:21.776Z,97074.66
2023-02-02T22:19:52.114Z,97074.31
2023-02-02T22:22:23.117Z,97075.59
2023-02-02T22:25:01.059Z,97079.00
2023-02-02T22:27:42.515Z,97073.69
2023-02-02T22:30:24.431Z,97086.28
2023-02-02T22:32:52.586Z,97084.63
2023-02-02T22:35:20.486Z,97083.06
2023-02-02T22:37:49.815Z,97090.16
2023-02-02T22:40:19.155Z,97086.28
2023-02-02T22:42:47.019Z,97081.91
2023-02-02T22:45:15.080Z,97079.50
2023-02-02T22:47:43.006Z,97070.03
2023-02-02T22:50:11.527Z,97074.03
2023-02-02T22:52:39.568Z,97090.81
2023-02-02T22:55:09.695Z,97083.41
2023-02-02T22:57:37.944Z,97075.50
2023-02-02T23:00:10.547Z,97069.22
2023-02-02T23:02:38.798Z,97080.97
2023-02-02T23:05:07.456Z,97073.69
2023-02-02T23:07:35.363Z,97067.47
2023-02-02T23:10:03.367Z,97075.38
2023-02-02T23:12:32.672Z,97076.81
2023-02-02T23:15:00.537Z,97067.47
2023-02-02T23:17:28.466Z,97069.88
2023-02-02T23:19:56.292Z,97069.09
2023-02-02T23:22:24.167Z,97060.38
2023-02-02T23:24:52.018Z,97064.72
2023-02-02T23:27:19.862Z,97061.31
2023-02-02T23:29:49.173Z,97064.28
2023-02-02T23:32:16.999Z,97070.03
2023-02-02T23:34:44.922Z,97074.38
2023-02-02T23:37:12.920Z,97076.19
2023-02-02T23:39:40.819Z,97074.69
2023-02-02T23:42:08.657Z,97085.19
2023-02-02T23:44:36.533Z,97079.72
2023-02-02T23:47:06.286Z,97087.59
2023-02-02T23:49:35.233Z,97077.75
2023-02-02T23:52:03.847Z,97078.56
2023-02-02T23:54:32.981Z,97074.56
2023-02-02T23:57:01.118Z,97072.00
2023-02-02T23:59:29.272Z,97078.44
